createdAt,value
2023-01-21T00:01:12.107Z,2.50
2023-01-21T00:03:40.239Z,2.40
2023-01-21T00:06:08.658Z,2.40
2023-01-21T00:08:36.881Z,2.40
2023-01-21T00:11:11.245Z,2.40
2023-01-21T00:13:39.116Z,2.40
2023-01-21T00:16:07.861Z,2.50
2023-01-21T00:18:35.868Z,2.50
2023-01-21T00:21:04.042Z,2.50
2023-01-21T00:23:31.876Z,2.50
2023-01-21T00:26:00.345Z,2.50
2023-01-21T00:28:30.712Z,2.50
2023-01-21T00:30:59.346Z,2.50
2023-01-21T00:33:27.407Z,2.50
2023-01-21T00:35:59.934Z,2.40
2023-01-21T00:38:27.782Z,2.50
2023-01-21T00:41:01.072Z,2.40
2023-01-21T00:43:30.581Z,2.40
2023-01-21T00:45:58.832Z,2.40
2023-01-21T00:48:28.236Z,2.40
2023-01-21T00:50:59.011Z,2.40
2023-01-21T00:53:27.243Z,2.40
2023-01-21T00:55:55.251Z,2.40
2023-01-21T00:58:23.186Z,2.40
2023-01-21T01:00:52.329Z,2.40
2023-01-21T01:03:20.118Z,2.30
2023-01-21T01:05:47.949Z,2.30
2023-01-21T01:08:15.780Z,2.40
2023-01-21T01:10:43.565Z,2.30
2023-01-21T01:13:11.426Z,2.30
2023-01-21T01:15:39.253Z,2.40
2023-01-21T01:18:10.943Z,2.30
2023-01-21T01:20:38.754Z,2.40
2023-01-21T01:23:08.670Z,2.30
2023-01-21T01:25:37.893Z,2.40
2023-01-21T01:28:06.471Z,2.30
2023-01-21T01:30:39.382Z,2.30
2023-01-21T01:33:08.495Z,2.30
2023-01-21T01:35:36.655Z,2.30
2023-01-21T01:38:07.933Z,2.30
2023-01-21T01:40:37.583Z,2.30
2023-01-21T01:43:14.955Z,2.30
2023-01-21T01:45:42.867Z,2.30
2023-01-21T01:48:15.700Z,2.30
2023-01-21T01:50:44.333Z,2.30
2023-01-21T01:53:14.369Z,2.30
2023-01-21T01:55:43.442Z,2.30
2023-01-21T01:58:14.184Z,2.30
2023-01-21T02:00:42.091Z,2.30
2023-01-21T02:03:29.599Z,2.30
2023-01-21T02:05:57.502Z,2.30
2023-01-21T02:08:26.090Z,2.30
2023-01-21T02:10:56.158Z,2.20
2023-01-21T02:13:24.635Z,2.20
2023-01-21T02:16:13.503Z,2.20
2023-01-21T02:18:51.782Z,2.20
2023-01-21T02:21:50.744Z,2.20
2023-01-21T02:24:43.010Z,2.20
2023-01-21T02:27:42.123Z,2.20
2023-01-21T02:30:29.868Z,2.10
2023-01-21T02:33:28.038Z,2.10
2023-01-21T02:36:04.140Z,2.10
2023-01-21T02:38:37.802Z,2.00
2023-01-21T02:41:12.533Z,2.00
2023-01-21T02:43:50.448Z,2.00
2023-01-21T02:46:22.570Z,2.00
2023-01-21T02:48:57.765Z,2.00
2023-01-21T02:51:25.599Z,2.00
2023-01-21T02:53:53.332Z,1.90
2023-01-21T02:56:25.812Z,1.90
2023-01-21T02:58:59.781Z,1.90
2023-01-21T03:01:36.765Z,1.90
2023-01-21T03:04:30.845Z,1.90
2023-01-21T03:07:07.876Z,1.90
2023-01-21T03:09:37.271Z,1.80
2023-01-21T03:12:19.581Z,1.80
2023-01-21T03:15:12.981Z,1.80
2023-01-21T03:17:46.685Z,1.80
2023-01-21T03:20:20.693Z,1.80
2023-01-21T03:22:52.957Z,1.80
2023-01-21T03:25:21.801Z,1.80
2023-01-21T03:27:51.941Z,1.70
2023-01-21T03:30:23.541Z,1.70
2023-01-21T03:32:53.277Z,1.70
2023-01-21T03:35:27.366Z,1.70
2023-01-21T03:37:59.574Z,1.60
2023-01-21T03:40:31.704Z,1.60
2023-01-21T03:42:59.500Z,1.60
2023-01-21T03:45:35.699Z,1.60
2023-01-21T03:48:12.471Z,1.60
2023-01-21T03:50:46.320Z,1.60
2023-01-21T03:53:14.173Z,1.50
2023-01-21T03:55:41.964Z,1.60
2023-01-21T03:58:09.836Z,1.60
2023-01-21T04:00:37.627Z,1.60
2023-01-21T04:03:05.499Z,1.50
2023-01-21T04:05:33.470Z,1.60
2023-01-21T04:08:03.067Z,1.60
2023-01-21T04:10:30.843Z,1.50
2023-01-21T04:12:58.667Z,1.50
2023-01-21T04:15:26.494Z,1.50
2023-01-21T04:17:54.358Z,1.50
2023-01-21T04:20:22.187Z,1.50
2023-01-21T04:22:50.031Z,1.40
2023-01-21T04:25:19.145Z,1.40
2023-01-21T04:27:46.914Z,1.40
2023-01-21T04:30:15.267Z,1.40
2023-01-21T04:32:43.723Z,1.40
2023-01-21T04:35:11.499Z,1.40
2023-01-21T04:37:39.327Z,1.30
2023-01-21T04:40:08.294Z,1.30
2023-01-21T04:42:37.462Z,1.30
2023-01-21T04:45:06.224Z,1.30
2023-01-21T04:47:34.000Z,1.30
2023-01-21T04:50:02.166Z,1.30
2023-01-21T04:52:30.342Z,1.30
2023-01-21T04:54:58.117Z,1.30
2023-01-21T04:57:25.927Z,1.30
2023-01-21T04:59:55.105Z,1.20
2023-01-21T05:02:22.895Z,1.10
2023-01-21T05:04:50.794Z,1.10
2023-01-21T05:07:20.816Z,1.10
2023-01-21T05:09:49.539Z,1.10
2023-01-21T05:12:17.444Z,1.10
2023-01-21T05:14:45.290Z,1.10
2023-01-21T05:17:14.488Z,1.10
2023-01-21T05:19:42.325Z,1.10
2023-01-21T05:22:10.293Z,1.10
2023-01-21T05:24:38.145Z,1.10
2023-01-21T05:27:05.913Z,1.10
2023-01-21T05:29:33.703Z,1.10
2023-01-21T05:32:01.557Z,1.10
2023-01-21T05:34:30.750Z,1.10
2023-01-21T05:36:58.628Z,1.10
2023-01-21T05:39:26.585Z,1.10
2023-01-21T05:41:54.349Z,1.10
2023-01-21T05:44:22.176Z,1.10
2023-01-21T05:46:49.960Z,1.10
2023-01-21T05:49:17.901Z,1.10
2023-01-21T05:51:47.088Z,1.10
2023-01-21T05:54:14.938Z,1.10
2023-01-21T05:56:42.732Z,1.10
2023-01-21T05:59:10.699Z,1.10
2023-01-21T06:01:38.482Z,1.10
2023-01-21T06:04:08.556Z,1.10
2023-01-21T06:06:36.708Z,1.10
2023-01-21T06:09:05.991Z,1.10
2023-01-21T06:11:33.848Z,1.10
2023-01-21T06:14:01.617Z,1.10
2023-01-21T06:16:29.434Z,1.10
2023-01-21T06:18:57.283Z,1.00
2023-01-21T06:21:25.062Z,1.00
2023-01-21T06:23:52.832Z,1.00
2023-01-21T06:26:22.036Z,1.00
2023-01-21T06:28:49.812Z,1.00
2023-01-21T06:31:17.774Z,0.90
2023-01-21T06:33:45.579Z,0.90
2023-01-21T06:36:13.389Z,0.90
2023-01-21T06:38:41.185Z,0.90
2023-01-21T06:41:08.971Z,0.80
2023-01-21T06:43:38.434Z,0.80
2023-01-21T06:46:06.597Z,0.80
2023-01-21T06:48:34.550Z,0.80
2023-01-21T06:51:02.593Z,0.80
2023-01-21T06:53:30.447Z,0.80
2023-01-21T06:55:58.299Z,0.80
2023-01-21T06:58:26.168Z,0.80
2023-01-21T07:00:58.042Z,0.80
2023-01-21T07:03:25.848Z,0.70
2023-01-21T07:05:53.651Z,0.70
2023-01-21T07:08:21.558Z,0.70
2023-01-21T07:10:49.393Z,0.70
2023-01-21T07:13:17.232Z,0.70
2023-01-21T07:15:45.056Z,0.70
2023-01-21T07:18:14.169Z,0.70
2023-01-21T07:20:42.510Z,0.70
2023-01-21T07:23:14.913Z,0.70
2023-01-21T07:25:43.037Z,0.70
2023-01-21T07:28:10.811Z,0.60
2023-01-21T07:30:38.688Z,0.70
2023-01-21T07:33:07.169Z,0.70
2023-01-21T07:35:36.943Z,0.70
2023-01-21T07:38:04.741Z,0.70
2023-01-21T07:40:32.744Z,0.70
2023-01-21T07:43:00.555Z,0.70
2023-01-21T07:45:28.436Z,0.60
2023-01-21T07:47:56.228Z,0.60
2023-01-21T07:50:24.005Z,0.60
2023-01-21T07:52:54.086Z,0.60
2023-01-21T07:55:22.226Z,0.60
2023-01-21T07:57:50.069Z,0.60
2023-01-21T08:00:18.870Z,0.60
2023-01-21T08:02:46.751Z,0.60
2023-01-21T08:05:14.904Z,0.60
2023-01-21T08:07:42.977Z,0.60
2023-01-21T08:10:12.898Z,0.60
2023-01-21T08:12:43.750Z,0.50
2023-01-21T08:15:12.134Z,0.50
2023-01-21T08:17:40.162Z,0.50
2023-01-21T08:20:10.472Z,0.50
2023-01-21T08:22:38.741Z,0.40
2023-01-21T08:25:08.012Z,0.40
2023-01-21T08:27:37.275Z,0.40
2023-01-21T08:30:06.003Z,0.40
2023-01-21T08:32:33.835Z,0.40
2023-01-21T08:35:01.769Z,0.40
2023-01-21T08:37:29.580Z,0.40
2023-01-21T08:39:57.433Z,0.40
2023-01-21T08:42:25.431Z,0.40
2023-01-21T08:44:54.628Z,0.40
2023-01-21T08:47:22.451Z,0.40
2023-01-21T08:49:50.375Z,0.40
2023-01-21T08:52:18.486Z,0.40
2023-01-21T08:54:46.249Z,0.40
2023-01-21T08:57:14.270Z,0.40
2023-01-21T08:59:42.043Z,0.30
2023-01-21T09:02:12.832Z,0.30
2023-01-21T09:04:40.708Z,0.30
2023-01-21T09:07:08.519Z,0.30
2023-01-21T09:09:36.787Z,0.20
2023-01-21T09:12:12.589Z,0.20
2023-01-21T09:14:40.404Z,0.20
2023-01-21T09:17:08.502Z,0.10
2023-01-21T09:19:38.271Z,0.10
2023-01-21T09:22:06.488Z,0.10
2023-01-21T09:24:41.800Z,0.00
2023-01-21T09:27:09.848Z,0.00
2023-01-21T09:29:37.647Z,0.00
2023-01-21T09:32:06.155Z,0.00
2023-01-21T09:34:35.699Z,0.00
2023-01-21T09:37:07.776Z,0.00
2023-01-21T09:39:35.663Z,0.00
2023-01-21T09:42:03.499Z,0.00
2023-01-21T09:44:34.601Z,0.00
2023-01-21T09:47:04.592Z,0.00
2023-01-21T09:49:38.279Z,0.00
2023-01-21T09:52:31.045Z,0.00
2023-01-21T09:54:59.951Z,0.00
2023-01-21T09:58:04.127Z,0.00
2023-01-21T10:00:36.594Z,0.00
2023-01-21T10:03:16.326Z,0.00
2023-01-21T10:06:14.650Z,0.00
2023-01-21T10:09:07.876Z,0.00
2023-01-21T10:11:47.943Z,0.00
2023-01-21T10:14:39.774Z,0.00
2023-01-21T10:17:14.656Z,0.00
2023-01-21T10:19:48.326Z,0.00
2023-01-21T10:22:21.181Z,0.00
2023-01-21T10:24:54.541Z,0.00
2023-01-21T10:27:24.487Z,0.00
2023-01-21T10:29:56.500Z,0.00
2023-01-21T10:32:27.661Z,0.00
2023-01-21T10:34:56.583Z,0.00
2023-01-21T10:37:32.973Z,0.00
2023-01-21T10:40:11.143Z,0.00
2023-01-21T10:42:54.860Z,0.00
2023-01-21T10:45:32.337Z,0.00
2023-01-21T10:48:06.790Z,0.00
2023-01-21T10:50:43.736Z,0.00
2023-01-21T10:53:20.532Z,0.00
2023-01-21T10:56:01.198Z,0.00
2023-01-21T10:58:33.638Z,0.00
2023-01-21T11:01:04.318Z,0.00
2023-01-21T11:03:41.428Z,0.00
2023-01-21T11:06:13.085Z,0.00
2023-01-21T11:08:44.504Z,0.00
2023-01-21T11:11:15.706Z,0.00
2023-01-21T11:13:43.691Z,0.00
2023-01-21T11:16:11.722Z,0.00
2023-01-21T11:18:42.219Z,0.00
2023-01-21T11:21:18.377Z,0.00
2023-01-21T11:23:54.282Z,0.00
2023-01-21T11:26:27.007Z,0.00
2023-01-21T11:29:09.017Z,0.00
2023-01-21T11:31:37.899Z,0.00
2023-01-21T11:34:07.781Z,0.00
2023-01-21T11:36:35.782Z,0.00
2023-01-21T11:39:05.761Z,0.00
2023-01-21T11:41:34.985Z,0.00
2023-01-21T11:44:18.562Z,0.00
2023-01-21T11:46:46.696Z,0.10
2023-01-21T11:49:29.000Z,0.10
2023-01-21T11:52:18.286Z,0.10
2023-01-21T11:54:47.427Z,0.10
2023-01-21T11:57:25.465Z,0.10
2023-01-21T11:59:57.053Z,0.10
2023-01-21T12:02:29.290Z,0.10
2023-01-21T12:05:02.329Z,0.10
2023-01-21T12:07:32.883Z,0.10
2023-01-21T12:10:07.203Z,0.10
2023-01-21T12:12:56.240Z,0.10
2023-01-21T12:15:36.631Z,0.10
2023-01-21T12:18:17.588Z,0.10
2023-01-21T12:20:55.919Z,0.10
2023-01-21T12:23:46.839Z,0.10
2023-01-21T12:26:35.441Z,0.20
2023-01-21T12:29:21.594Z,0.10
2023-01-21T12:31:54.536Z,0.20
2023-01-21T12:34:28.851Z,0.20
2023-01-21T12:37:00.933Z,0.20
2023-01-21T12:39:33.519Z,0.20
2023-01-21T12:42:10.650Z,0.20
2023-01-21T12:44:46.236Z,0.20
2023-01-21T12:47:26.277Z,0.30
2023-01-21T12:50:11.493Z,0.30
2023-01-21T12:52:44.857Z,0.30
2023-01-21T12:55:21.601Z,0.30
2023-01-21T12:57:56.756Z,0.30
2023-01-21T13:00:28.475Z,0.30
2023-01-21T13:03:10.008Z,0.40
2023-01-21T13:05:45.109Z,0.40
2023-01-21T13:08:41.654Z,0.40
2023-01-21T13:11:18.596Z,0.40
2023-01-21T13:13:52.589Z,0.40
2023-01-21T13:16:25.970Z,0.40
2023-01-21T13:18:55.460Z,0.40
2023-01-21T13:21:35.918Z,0.40
2023-01-21T13:24:15.204Z,0.50
2023-01-21T13:26:51.122Z,0.50
2023-01-21T13:29:27.982Z,0.40
2023-01-21T13:32:16.931Z,0.50
2023-01-21T13:34:56.669Z,0.40
2023-01-21T13:37:33.817Z,0.40
2023-01-21T13:40:19.738Z,0.40
2023-01-21T13:42:55.914Z,0.40
2023-01-21T13:45:33.778Z,0.40
2023-01-21T13:48:24.434Z,0.40
2023-01-21T13:51:15.866Z,0.40
2023-01-21T13:54:05.736Z,0.50
2023-01-21T13:56:47.298Z,0.40
2023-01-21T13:59:21.208Z,0.40
2023-01-21T14:01:55.064Z,0.40
2023-01-21T14:04:31.438Z,0.50
2023-01-21T14:07:05.313Z,0.40
2023-01-21T14:09:41.374Z,0.40
2023-01-21T14:12:13.985Z,0.50
2023-01-21T14:15:12.864Z,0.50
2023-01-21T14:18:05.238Z,0.50
2023-01-21T14:21:09.276Z,0.50
2023-01-21T14:24:08.299Z,0.50
2023-01-21T14:26:54.172Z,0.50
2023-01-21T14:29:31.082Z,0.50
2023-01-21T14:32:06.310Z,0.50
2023-01-21T14:34:42.755Z,0.50
2023-01-21T14:37:15.037Z,0.50
2023-01-21T14:39:50.785Z,0.50
2023-01-21T14:42:25.048Z,0.50
2023-01-21T14:45:07.890Z,0.50
2023-01-21T14:47:50.460Z,0.50
2023-01-21T14:50:53.397Z,0.60
2023-01-21T14:53:25.772Z,0.50
2023-01-21T14:56:12.466Z,0.50
2023-01-21T14:58:46.625Z,0.60
2023-01-21T15:01:32.142Z,0.60
2023-01-21T15:04:04.946Z,0.60
2023-01-21T15:06:38.234Z,0.60
2023-01-21T15:09:09.263Z,0.60
2023-01-21T15:11:39.713Z,0.60
2023-01-21T15:14:15.504Z,0.50
2023-01-21T15:16:45.397Z,0.60
2023-01-21T15:19:24.056Z,0.60
2023-01-21T15:22:17.906Z,0.50
2023-01-21T15:25:25.058Z,0.60
2023-01-21T15:28:34.990Z,0.60
2023-01-21T15:31:05.702Z,0.60
2023-01-21T15:33:38.822Z,0.60
2023-01-21T15:36:17.399Z,0.60
2023-01-21T15:38:45.357Z,0.60
2023-01-21T15:41:26.931Z,0.60
2023-01-21T15:44:08.296Z,0.60
2023-01-21T15:46:45.973Z,0.60
2023-01-21T15:49:28.978Z,0.60
2023-01-21T15:52:06.357Z,0.60
2023-01-21T15:54:41.166Z,0.60
2023-01-21T15:57:29.102Z,0.60
2023-01-21T16:00:20.530Z,0.60
2023-01-21T16:02:56.281Z,0.60
2023-01-21T16:05:32.503Z,0.60
2023-01-21T16:08:12.215Z,0.60
2023-01-21T16:10:47.963Z,0.60
2023-01-21T16:13:25.025Z,0.60
2023-01-21T16:16:07.315Z,0.60
2023-01-21T16:18:46.731Z,0.60
2023-01-21T16:21:16.232Z,0.60
2023-01-21T16:23:44.926Z,0.60
2023-01-21T16:26:25.235Z,0.60
2023-01-21T16:28:53.819Z,0.60
2023-01-21T16:31:23.935Z,0.60
2023-01-21T16:33:53.554Z,0.60
2023-01-21T16:36:21.490Z,0.60
2023-01-21T16:38:49.519Z,0.60
2023-01-21T16:41:35.625Z,0.60
2023-01-21T16:44:06.177Z,0.60
2023-01-21T16:46:38.318Z,0.60
2023-01-21T16:49:16.301Z,0.60
2023-01-21T16:51:54.014Z,0.60
2023-01-21T16:54:26.445Z,0.60
2023-01-21T16:56:56.861Z,0.60
2023-01-21T16:59:27.900Z,0.60
2023-01-21T17:01:57.822Z,0.60
2023-01-21T17:04:25.739Z,0.60
2023-01-21T17:06:54.253Z,0.60
2023-01-21T17:09:30.625Z,0.60
2023-01-21T17:12:02.656Z,0.60
2023-01-21T17:14:32.412Z,0.60
2023-01-21T17:17:05.835Z,0.60
2023-01-21T17:19:37.631Z,0.50
2023-01-21T17:22:14.207Z,0.60
2023-01-21T17:25:01.751Z,0.60
2023-01-21T17:27:31.207Z,0.60
2023-01-21T17:30:17.599Z,0.60
2023-01-21T17:32:54.421Z,0.60
2023-01-21T17:35:23.777Z,0.60
2023-01-21T17:37:57.372Z,0.60
2023-01-21T17:40:30.549Z,0.60
2023-01-21T17:42:59.850Z,0.60
2023-01-21T17:45:43.307Z,0.60
2023-01-21T17:48:22.830Z,0.60
2023-01-21T17:50:50.733Z,0.60
2023-01-21T17:53:22.848Z,0.60
2023-01-21T17:56:02.792Z,0.60
2023-01-21T17:58:45.829Z,0.60
2023-01-21T18:01:14.304Z,0.60
2023-01-21T18:03:43.541Z,0.60
2023-01-21T18:06:18.464Z,0.60
2023-01-21T18:08:46.353Z,0.60
2023-01-21T18:11:16.968Z,0.60
2023-01-21T18:13:44.824Z,0.70
2023-01-21T18:16:12.742Z,0.60
2023-01-21T18:18:41.808Z,0.70
2023-01-21T18:21:18.859Z,0.60
2023-01-21T18:23:46.767Z,0.60
2023-01-21T18:26:21.282Z,0.60
2023-01-21T18:28:49.349Z,0.60
2023-01-21T18:31:17.281Z,0.60
2023-01-21T18:33:45.199Z,0.60
2023-01-21T18:36:14.403Z,0.60
2023-01-21T18:38:42.297Z,0.70
2023-01-21T18:41:13.317Z,0.70
2023-01-21T18:43:41.912Z,0.70
2023-01-21T18:46:13.132Z,0.70
2023-01-21T18:48:42.780Z,0.70
2023-01-21T18:51:10.987Z,0.70
2023-01-21T18:53:43.221Z,0.70
2023-01-21T18:56:13.937Z,0.70
2023-01-21T18:58:41.826Z,0.70
2023-01-21T19:01:21.989Z,0.70
2023-01-21T19:03:51.683Z,0.70
2023-01-21T19:06:19.580Z,0.70
2023-01-21T19:08:49.017Z,0.70
2023-01-21T19:11:18.007Z,0.70
2023-01-21T19:13:45.828Z,0.70
2023-01-21T19:16:17.080Z,0.70
2023-01-21T19:18:45.094Z,0.60
2023-01-21T19:21:13.109Z,0.70
2023-01-21T19:23:41.091Z,0.60
2023-01-21T19:26:14.555Z,0.70
2023-01-21T19:28:42.957Z,0.60
2023-01-21T19:31:10.879Z,0.60
2023-01-21T19:33:39.774Z,0.60
2023-01-21T19:36:16.036Z,0.60
2023-01-21T19:38:47.054Z,0.60
2023-01-21T19:41:16.203Z,0.60
2023-01-21T19:43:44.054Z,0.60
2023-01-21T19:46:12.914Z,0.60
2023-01-21T19:48:41.469Z,0.60
2023-01-21T19:51:09.660Z,0.60
2023-01-21T19:53:37.663Z,0.60
2023-01-21T19:56:06.202Z,0.60
2023-01-21T19:58:35.694Z,0.60
2023-01-21T20:01:03.581Z,0.60
2023-01-21T20:03:31.363Z,0.60
2023-01-21T20:06:01.402Z,0.60
2023-01-21T20:08:31.292Z,0.60
2023-01-21T20:10:59.068Z,0.60
2023-01-21T20:13:31.123Z,0.60
2023-01-21T20:16:03.632Z,0.60
2023-01-21T20:18:33.231Z,0.60
2023-01-21T20:21:01.093Z,0.60
2023-01-21T20:23:31.087Z,0.60
2023-01-21T20:26:00.828Z,0.60
2023-01-21T20:28:35.899Z,0.60
2023-01-21T20:31:07.209Z,0.60
2023-01-21T20:33:36.661Z,0.60
2023-01-21T20:36:06.937Z,0.60
2023-01-21T20:38:36.623Z,0.60
2023-01-21T20:41:06.070Z,0.60
2023-01-21T20:43:34.508Z,0.60
2023-01-21T20:46:06.371Z,0.60
2023-01-21T20:48:36.881Z,0.60
2023-01-21T20:51:05.459Z,0.60
2023-01-21T20:53:33.351Z,0.60
2023-01-21T20:56:07.882Z,0.60
2023-01-21T20:58:35.789Z,0.60
2023-01-21T21:01:05.120Z,0.60
2023-01-21T21:03:32.939Z,0.60
2023-01-21T21:06:00.746Z,0.60
2023-01-21T21:08:28.631Z,0.60
2023-01-21T21:10:56.465Z,0.60
2023-01-21T21:13:24.238Z,0.60
2023-01-21T21:15:52.929Z,0.60
2023-01-21T21:18:22.149Z,0.60
2023-01-21T21:20:49.959Z,0.60
2023-01-21T21:23:17.716Z,0.60
2023-01-21T21:25:47.769Z,0.60
2023-01-21T21:28:17.219Z,0.60
2023-01-21T21:30:45.614Z,0.60
2023-01-21T21:33:18.861Z,0.60
2023-01-21T21:35:48.289Z,0.60
2023-01-21T21:38:18.096Z,0.60
2023-01-21T21:40:47.526Z,0.60
2023-01-21T21:43:32.711Z,0.60
2023-01-21T21:46:22.999Z,0.60
2023-01-21T21:48:52.057Z,0.60
2023-01-21T21:51:22.391Z,0.60
2023-01-21T21:53:50.646Z,0.60
2023-01-21T21:56:20.073Z,0.60
2023-01-21T21:58:48.554Z,0.60
2023-01-21T22:01:18.724Z,0.60
2023-01-21T22:03:46.944Z,0.60
2023-01-21T22:06:15.651Z,0.70
2023-01-21T22:08:45.327Z,0.60
2023-01-21T22:11:16.448Z,0.70
2023-01-21T22:13:44.793Z,0.70
2023-01-21T22:16:15.462Z,0.60
2023-01-21T22:18:43.848Z,0.70
2023-01-21T22:21:15.263Z,0.70
2023-01-21T22:23:44.800Z,0.70
2023-01-21T22:26:14.636Z,0.70
2023-01-21T22:28:44.016Z,0.70
2023-01-21T22:31:14.087Z,0.70
2023-01-21T22:33:42.262Z,0.60
2023-01-21T22:36:12.049Z,0.70
2023-01-21T22:38:40.871Z,0.60
2023-01-21T22:41:11.349Z,0.70
2023-01-21T22:43:41.598Z,0.70
2023-01-21T22:46:13.049Z,0.70
2023-01-21T22:48:41.477Z,0.60
2023-01-21T22:51:12.801Z,0.60
2023-01-21T22:53:41.231Z,0.60
2023-01-21T22:56:12.697Z,0.60
2023-01-21T22:58:40.471Z,0.60
2023-01-21T23:01:08.669Z,0.60
2023-01-21T23:03:37.897Z,0.60
2023-01-21T23:06:06.944Z,0.60
2023-01-21T23:08:36.899Z,0.60
2023-01-21T23:11:06.940Z,0.60
2023-01-21T23:13:37.099Z,0.60
2023-01-21T23:16:07.713Z,0.50
2023-01-21T23:18:40.056Z,0.60
2023-01-21T23:21:09.348Z,0.50
2023-01-21T23:23:38.617Z,0.60
2023-01-21T23:26:07.447Z,0.50
2023-01-21T23:28:38.168Z,0.60
2023-01-21T23:31:06.892Z,0.60
2023-01-21T23:33:35.638Z,0.60
2023-01-21T23:36:03.546Z,0.60
2023-01-21T23:38:31.463Z,0.60
2023-01-21T23:40:59.929Z,0.60
2023-01-21T23:43:28.324Z,0.50
2023-01-21T23:45:57.637Z,0.50
2023-01-21T23:48:25.595Z,0.50
2023-01-21T23:50:53.461Z,0.50
2023-01-21T23:53:21.258Z,0.60
2023-01-21T23:55:49.065Z,0.60
2023-01-21T23:58:16.854Z,0.60
